Time;durP1;ratioP1;P1;durP2;ratioP2;P2;SDS_P1;SDS_P2;PMS_P1;PMS_P2;Temp;Humidity;BMP_temperature;BMP_pressure;BME280_temperature;BME280_humidity;BME280_pressure;Samples;Min_cycle;Max_cycle;Signal;HPM_P1;HPM_P2
2022/09/14 00:01:55;;;;;;;4.80;4.38;;;;;;;;;;4973923;28;20109;-63
2022/09/14 00:04:21;;;;;;;5.10;3.85;;;;;;;;;;4974292;28;20030;-63
2022/09/14 00:06:46;;;;;;;5.03;4.43;;;;;;;;;;4973790;28;20363;-63
2022/09/14 00:09:19;;;;;;;3.70;3.50;;;;;;;;;;4970818;28;20041;-64
2022/09/14 00:11:45;;;;;;;4.38;3.97;;;;;;;;;;4972016;28;20577;-64
2022/09/14 00:14:10;;;;;;;6.22;4.30;;;;;;;;;;4975677;28;20085;-63
2022/09/14 00:16:37;;;;;;;4.13;3.78;;;;;;;;;;4975284;28;20518;-63
2022/09/14 00:19:05;;;;;;;4.28;3.90;;;;;;;;;;4974170;28;20433;-64
2022/09/14 00:21:34;;;;;;;4.13;3.92;;;;;;;;;;4973950;28;20137;-64
2022/09/14 00:24:00;;;;;;;3.80;3.50;;;;;;;;;;4973295;28;20057;-63
2022/09/14 00:26:25;;;;;;;4.15;3.85;;;;;;;;;;4972955;28;20225;-64
2022/09/14 00:28:55;;;;;;;3.95;3.65;;;;;;;;;;4974469;28;20402;-64
2022/09/14 00:31:21;;;;;;;3.97;3.67;;;;;;;;;;4973510;28;20034;-64
2022/09/14 00:33:47;;;;;;;5.10;4.60;;;;;;;;;;4973342;28;20042;-64
2022/09/14 00:36:22;;;;;;;4.75;4.25;;;;;;;;;;4969905;28;20022;-64
2022/09/14 00:38:48;;;;;;;4.60;4.30;;;;;;;;;;4970943;28;20049;-63
2022/09/14 00:41:16;;;;;;;4.03;3.72;;;;;;;;;;4972433;28;20026;-64
2022/09/14 00:43:50;;;;;;;4.60;4.15;;;;;;;;;;4974910;28;20487;-63
2022/09/14 00:46:15;;;;;;;4.43;4.13;;;;;;;;;;4973580;28;20042;-64
2022/09/14 00:48:40;;;;;;;5.10;4.60;;;;;;;;;;4972549;28;20129;-63
2022/09/14 00:51:05;;;;;;;4.40;3.75;;;;;;;;;;4972082;28;20035;-63
2022/09/14 00:53:31;;;;;;;4.40;4.00;;;;;;;;;;4960189;28;20037;-65
2022/09/14 00:55:56;;;;;;;4.95;4.45;;;;;;;;;;4980682;28;20277;-63
2022/09/14 00:58:21;;;;;;;4.00;3.70;;;;;;;;;;4969779;28;20041;-64
2022/09/14 01:00:47;;;;;;;4.70;4.35;;;;;;;;;;4968544;28;20031;-64
2022/09/14 01:03:12;;;;;;;6.28;3.88;;;;;;;;;;4973578;28;20018;-63
2022/09/14 01:05:40;;;;;;;4.40;4.10;;;;;;;;;;4968301;28;20023;-63
2022/09/14 01:08:11;;;;;;;7.68;4.10;;;;;;;;;;4969328;28;20038;-64
2022/09/14 01:10:39;;;;;;;4.55;3.95;;;;;;;;;;4973740;28;20023;-63
2022/09/14 01:13:21;;;;;;;4.90;4.00;;;;;;;;;;4970778;28;20101;-64
2022/09/14 01:16:06;;;;;;;8.27;4.40;;;;;;;;;;4972939;28;20041;-64
2022/09/14 01:18:35;;;;;;;4.13;3.78;;;;;;;;;;4972766;28;20031;-64
2022/09/14 01:21:00;;;;;;;4.28;3.88;;;;;;;;;;4972096;28;20094;-64
2022/09/14 01:23:34;;;;;;;4.38;3.97;;;;;;;;;;4970666;28;20023;-64
2022/09/14 01:26:26;;;;;;;3.97;3.63;;;;;;;;;;4971610;28;20027;-64
2022/09/14 01:28:57;;;;;;;3.78;3.47;;;;;;;;;;4972663;28;20054;-64
2022/09/14 01:31:27;;;;;;;3.67;3.42;;;;;;;;;;4972189;28;20105;-62
2022/09/14 01:34:00;;;;;;;5.88;3.78;;;;;;;;;;4968728;28;20102;-66
2022/09/14 01:36:27;;;;;;;4.07;3.78;;;;;;;;;;4970373;28;20455;-63
2022/09/14 01:38:53;;;;;;;4.75;3.90;;;;;;;;;;4971930;28;20026;-63
2022/09/14 01:41:21;;;;;;;5.53;3.88;;;;;;;;;;4980498;28;20030;-64
2022/09/14 01:43:55;;;;;;;4.57;4.22;;;;;;;;;;4971653;28;20058;-64
2022/09/14 01:46:24;;;;;;;4.47;4.07;;;;;;;;;;4973038;28;20081;-64
2022/09/14 01:48:52;;;;;;;4.43;4.13;;;;;;;;;;4973032;28;20095;-64
2022/09/14 01:51:36;;;;;;;4.00;3.70;;;;;;;;;;4974558;28;20027;-64
2022/09/14 01:54:22;;;;;;;4.47;4.18;;;;;;;;;;4976117;28;20023;-64
2022/09/14 01:56:48;;;;;;;;;;;;;;;;;;4975289;28;20595;-63
2022/09/14 01:59:19;;;;;;;5.05;4.10;;;;;;;;;;4976692;28;19992;-64
2022/09/14 02:01:54;;;;;;;4.43;4.13;;;;;;;;;;4977673;28;20022;-63
2022/09/14 02:04:19;;;;;;;;;;;;;;;;;;4975629;28;20109;-64
2022/09/14 02:06:46;;;;;;;4.18;3.88;;;;;;;;;;4975406;28;19924;-64
2022/09/14 02:09:13;;;;;;;6.20;4.15;;;;;;;;;;4975904;28;20041;-63
2022/09/14 02:11:39;;;;;;;4.22;3.92;;;;;;;;;;4975123;28;20035;-64
2022/09/14 02:14:04;;;;;;;3.97;3.65;;;;;;;;;;4975065;28;20900;-65
2022/09/14 02:16:30;;;;;;;3.83;3.53;;;;;;;;;;4975177;28;20451;-64
2022/09/14 02:44:16;;;;;;;4.93;4.53;;;;;;;;;;4975511;28;20117;-64
2022/09/14 03:01:57;;;;;;;4.18;3.80;;;;;;;;;;4974691;28;20595;-64
2022/09/14 03:04:23;;;;;;;10.30;4.10;;;;;;;;;;4977386;28;20026;-63
2022/09/14 03:06:48;;;;;;;4.13;3.83;;;;;;;;;;4974406;28;20105;-64
2022/09/14 03:09:13;;;;;;;3.92;3.72;;;;;;;;;;4973999;28;20061;-63
2022/09/14 03:11:39;;;;;;;4.15;3.72;;;;;;;;;;4975657;28;20058;-63
2022/09/14 03:14:04;;;;;;;3.95;3.60;;;;;;;;;;4974380;28;20019;-64
2022/09/14 03:16:29;;;;;;;5.07;4.15;;;;;;;;;;4972050;28;20025;-64
2022/09/14 03:18:54;;;;;;;4.03;3.63;;;;;;;;;;4974586;28;20129;-64
2022/09/14 03:21:20;;;;;;;4.80;3.83;;;;;;;;;;4975488;28;20541;-64
2022/09/14 03:23:46;;;;;;;7.50;3.55;;;;;;;;;;4961198;28;20392;-64
2022/09/14 03:26:16;;;;;;;5.40;3.40;;;;;;;;;;4975069;28;20058;-64
2022/09/14 03:28:41;;;;;;;3.60;3.40;;;;;;;;;;4975423;28;20100;-64
2022/09/14 03:31:08;;;;;;;4.20;3.55;;;;;;;;;;4974139;28;20504;-63
2022/09/14 03:33:33;;;;;;;4.40;4.00;;;;;;;;;;4975139;28;20027;-64
2022/09/14 03:35:59;;;;;;;3.65;3.45;;;;;;;;;;4974171;28;20484;-64
2022/09/14 03:38:28;;;;;;;3.58;3.38;;;;;;;;;;4974721;28;20031;-64
2022/09/14 03:40:54;;;;;;;4.03;3.67;;;;;;;;;;4974511;28;20030;-63
2022/09/14 03:43:20;;;;;;;4.90;3.47;;;;;;;;;;4975558;28;20026;-64
2022/09/14 03:45:45;;;;;;;3.92;3.63;;;;;;;;;;4975318;28;20038;-64
2022/09/14 03:48:14;;;;;;;3.78;3.47;;;;;;;;;;4975923;28;20031;-64
2022/09/14 03:50:39;;;;;;;4.47;3.47;;;;;;;;;;4975333;28;20027;-63
2022/09/14 03:53:04;;;;;;;3.75;3.40;;;;;;;;;;4974614;28;20385;-64
2022/09/14 03:55:29;;;;;;;3.13;2.92;;;;;;;;;;4974150;28;20473;-64
2022/09/14 03:57:55;;;;;;;3.85;3.55;;;;;;;;;;4974886;28;20042;-63
2022/09/14 04:00:21;;;;;;;3.83;3.17;;;;;;;;;;4975787;28;20038;-64
2022/09/14 04:02:46;;;;;;;4.65;3.33;;;;;;;;;;4974783;28;20081;-64
2022/09/14 04:05:11;;;;;;;3.92;3.33;;;;;;;;;;4973649;28;20122;-64
2022/09/14 04:07:36;;;;;;;3.55;3.22;;;;;;;;;;4974448;28;20041;-63
2022/09/14 04:10:03;;;;;;;3.08;2.88;;;;;;;;;;4974212;28;20019;-64
2022/09/14 04:12:28;;;;;;;3.92;3.55;;;;;;;;;;4974714;28;20030;-64
2022/09/14 04:14:53;;;;;;;3.75;3.50;;;;;;;;;;4973507;28;20074;-64
2022/09/14 04:17:18;;;;;;;4.50;3.13;;;;;;;;;;4975073;28;20138;-63
2022/09/14 04:19:44;;;;;;;3.70;3.40;;;;;;;;;;4973681;28;20888;-63
2022/09/14 04:22:09;;;;;;;4.05;3.60;;;;;;;;;;4974651;28;20030;-63
2022/09/14 04:24:34;;;;;;;4.93;3.28;;;;;;;;;;4973745;28;20026;-64
2022/09/14 04:27:00;;;;;;;4.03;2.88;;;;;;;;;;4973559;28;20027;-64
2022/09/14 04:29:25;;;;;;;3.55;3.05;;;;;;;;;;4974166;28;20030;-65
2022/09/14 04:31:50;;;;;;;3.38;2.85;;;;;;;;;;4973682;28;20054;-62
2022/09/14 04:34:15;;;;;;;5.88;3.50;;;;;;;;;;4972838;28;20086;-67
2022/09/14 04:36:41;;;;;;;3.42;3.13;;;;;;;;;;4972730;28;20480;-63
2022/09/14 04:39:06;;;;;;;3.03;2.83;;;;;;;;;;4973380;28;20027;-64
2022/09/14 04:41:31;;;;;;;4.00;3.70;;;;;;;;;;4972817;28;20901;-62
2022/09/14 04:43:58;;;;;;;3.83;3.50;;;;;;;;;;4975286;28;20552;-62
2022/09/14 04:46:25;;;;;;;4.88;3.65;;;;;;;;;;4971657;28;20653;-61
2022/09/14 04:48:50;;;;;;;3.42;3.13;;;;;;;;;;4972746;28;20031;-62
2022/09/14 04:51:18;;;;;;;3.67;3.38;;;;;;;;;;4968256;28;20453;-62
2022/09/14 04:53:44;;;;;;;5.57;3.85;;;;;;;;;;4972609;28;20042;-62
2022/09/14 04:56:09;;;;;;;5.88;5.00;;;;;;;;;;4969348;28;20023;-63
2022/09/14 04:58:38;;;;;;;6.03;4.07;;;;;;;;;;4972172;28;20438;-63
2022/09/14 05:01:07;;;;;;;4.97;4.47;;;;;;;;;;4972606;28;20121;-67
2022/09/14 05:03:33;;;;;;;5.40;4.53;;;;;;;;;;4973042;28;20046;-63
2022/09/14 05:06:01;;;;;;;4.90;4.50;;;;;;;;;;4973673;28;20042;-64
2022/09/14 05:08:27;;;;;;;4.93;3.75;;;;;;;;;;4973079;28;20048;-66
2022/09/14 05:10:55;;;;;;;3.63;3.30;;;;;;;;;;4972221;28;20034;-65
2022/09/14 05:13:21;;;;;;;3.58;3.28;;;;;;;;;;4970882;28;20492;-65
2022/09/14 05:15:46;;;;;;;3.33;3.08;;;;;;;;;;4971897;28;20038;-65
2022/09/14 05:18:11;;;;;;;3.33;3.10;;;;;;;;;;4970799;28;20093;-65
2022/09/14 05:20:36;;;;;;;3.95;3.65;;;;;;;;;;4973970;28;20043;-65
2022/09/14 05:23:02;;;;;;;3.80;3.50;;;;;;;;;;4973327;28;20070;-65
2022/09/14 05:25:27;;;;;;;4.32;3.92;;;;;;;;;;4972950;28;20022;-66
2022/09/14 05:27:53;;;;;;;5.38;3.75;;;;;;;;;;4971296;28;20027;-64
2022/09/14 05:30:18;;;;;;;3.80;3.50;;;;;;;;;;4970624;28;20424;-64
2022/09/14 05:32:43;;;;;;;4.05;3.75;;;;;;;;;;4971077;28;20035;-66
2022/09/14 05:35:08;;;;;;;5.25;3.67;;;;;;;;;;4970615;28;20529;-65
2022/09/14 05:37:34;;;;;;;5.00;4.32;;;;;;;;;;4971340;28;20058;-66
2022/09/14 05:39:59;;;;;;;3.28;3.08;;;;;;;;;;4979338;28;20342;-65
2022/09/14 05:42:24;;;;;;;3.67;3.38;;;;;;;;;;4969867;28;20042;-66
2022/09/14 05:44:49;;;;;;;6.65;3.85;;;;;;;;;;4972694;28;20046;-65
2022/09/14 05:47:15;;;;;;;4.18;3.83;;;;;;;;;;4972710;28;20030;-65
2022/09/14 05:49:40;;;;;;;3.90;3.60;;;;;;;;;;4971911;28;20513;-65
2022/09/14 05:52:05;;;;;;;5.20;3.13;;;;;;;;;;4971414;28;20202;-65
2022/09/14 05:54:30;;;;;;;4.15;3.75;;;;;;;;;;4971248;28;20465;-61
2022/09/14 05:56:55;;;;;;;4.32;4.03;;;;;;;;;;4969372;28;20078;-63
2022/09/14 05:59:21;;;;;;;4.13;3.35;;;;;;;;;;4968562;28;20042;-63
2022/09/14 06:01:46;;;;;;;9.57;4.13;;;;;;;;;;4969219;28;20035;-62
2022/09/14 06:04:11;;;;;;;3.67;3.25;;;;;;;;;;4968303;28;20482;-64
2022/09/14 06:06:36;;;;;;;3.55;3.25;;;;;;;;;;4971784;28;20042;-62
2022/09/14 06:09:02;;;;;;;3.70;2.97;;;;;;;;;;4979879;28;20456;-62
2022/09/14 06:11:29;;;;;;;4.35;3.95;;;;;;;;;;4971946;28;20027;-62
2022/09/14 06:13:55;;;;;;;4.30;3.88;;;;;;;;;;4972962;28;20031;-62
2022/09/14 06:16:21;;;;;;;3.70;3.50;;;;;;;;;;4972840;28;20034;-63
2022/09/14 06:18:47;;;;;;;2.95;2.75;;;;;;;;;;4973109;28;20121;-62
2022/09/14 06:21:14;;;;;;;4.88;3.40;;;;;;;;;;4971462;28;20093;-63
2022/09/14 06:23:39;;;;;;;3.03;2.83;;;;;;;;;;4972048;28;20072;-63
2022/09/14 06:26:04;;;;;;;4.93;3.22;;;;;;;;;;4970219;28;20027;-63
2022/09/14 06:28:30;;;;;;;3.25;3.05;;;;;;;;;;4969591;28;20031;-62
2022/09/14 06:30:55;;;;;;;4.65;2.88;;;;;;;;;;4971154;28;20579;-62
2022/09/14 06:33:21;;;;;;;3.63;3.03;;;;;;;;;;4970545;28;20061;-63
2022/09/14 06:35:54;;;;;;;3.75;3.38;;;;;;;;;;4972530;28;20034;-63
2022/09/14 06:38:19;;;;;;;3.05;2.85;;;;;;;;;;4975035;28;20134;-68
2022/09/14 06:40:55;;;;;;;3.90;3.40;;;;;;;;;;4976730;28;20506;-68
2022/09/14 06:43:20;;;;;;;4.00;3.33;;;;;;;;;;4974702;28;20023;-67
2022/09/14 06:45:56;;;;;;;3.60;2.97;;;;;;;;;;4975820;28;20037;-67
2022/09/14 06:48:21;;;;;;;3.47;3.17;;;;;;;;;;4979863;28;20031;-68
2022/09/14 06:50:46;;;;;;;3.70;3.40;;;;;;;;;;4977728;28;20031;-68
2022/09/14 06:53:11;;;;;;;3.75;3.10;;;;;;;;;;4974341;28;20027;-67
2022/09/14 06:55:37;;;;;;;7.05;3.60;;;;;;;;;;4976229;28;20023;-67
2022/09/14 06:58:02;;;;;;;4.25;3.58;;;;;;;;;;4976471;28;20093;-67
2022/09/14 07:00:27;;;;;;;3.70;3.40;;;;;;;;;;4974795;28;20077;-66
2022/09/14 07:02:53;;;;;;;5.95;3.67;;;;;;;;;;4971703;28;20591;-67
2022/09/14 07:05:19;;;;;;;3.00;2.80;;;;;;;;;;4974921;28;20022;-67
2022/09/14 07:07:45;;;;;;;4.07;3.78;;;;;;;;;;4975572;28;20577;-67
2022/09/14 07:10:10;;;;;;;6.57;3.60;;;;;;;;;;4974105;28;20022;-66
2022/09/14 07:12:35;;;;;;;3.55;3.25;;;;;;;;;;4976408;28;20030;-67
2022/09/14 07:15:01;;;;;;;3.67;3.38;;;;;;;;;;4971982;28;20385;-67
2022/09/14 07:17:26;;;;;;;4.15;3.75;;;;;;;;;;4971368;28;20251;-67
2022/09/14 07:19:51;;;;;;;3.70;3.22;;;;;;;;;;4971566;28;20026;-66
2022/09/14 07:22:16;;;;;;;3.67;3.38;;;;;;;;;;4970819;28;20038;-66
2022/09/14 07:24:41;;;;;;;4.32;3.92;;;;;;;;;;4974726;28;20543;-66
2022/09/14 07:27:07;;;;;;;3.67;3.38;;;;;;;;;;4975256;28;20448;-66
2022/09/14 07:29:33;;;;;;;3.72;3.42;;;;;;;;;;4971276;28;20428;-65
2022/09/14 07:31:58;;;;;;;4.85;4.35;;;;;;;;;;4973943;28;20529;-66
2022/09/14 07:34:24;;;;;;;3.65;3.35;;;;;;;;;;4972276;28;20149;-66
2022/09/14 07:36:49;;;;;;;3.72;2.90;;;;;;;;;;4973432;28;20034;-65
2022/09/14 07:39:15;;;;;;;4.10;3.70;;;;;;;;;;4976193;28;20043;-66
2022/09/14 07:41:42;;;;;;;4.28;3.88;;;;;;;;;;4975959;28;20034;-67
2022/09/14 07:44:08;;;;;;;3.53;3.22;;;;;;;;;;4976324;28;20504;-65
2022/09/14 07:46:38;;;;;;;4.03;3.70;;;;;;;;;;4976219;28;20031;-64
2022/09/14 07:49:04;;;;;;;4.75;4.38;;;;;;;;;;4976456;28;20134;-65
2022/09/14 07:51:29;;;;;;;3.80;3.50;;;;;;;;;;4975375;28;20077;-64
2022/09/14 07:53:55;;;;;;;4.32;3.60;;;;;;;;;;4975274;28;20453;-65
2022/09/14 07:56:20;;;;;;;3.95;3.55;;;;;;;;;;4971493;28;20038;-64
2022/09/14 07:58:46;;;;;;;4.15;3.88;;;;;;;;;;4980953;28;20045;-67
2022/09/14 08:01:13;;;;;;;5.18;4.10;;;;;;;;;;4975285;28;20066;-64
2022/09/14 08:03:42;;;;;;;3.80;3.53;;;;;;;;;;4972539;28;20030;-66
2022/09/14 08:06:12;;;;;;;4.00;3.70;;;;;;;;;;4971454;28;20026;-65
2022/09/14 08:08:38;;;;;;;3.75;3.40;;;;;;;;;;4972408;28;20234;-62
2022/09/14 08:11:04;;;;;;;3.80;3.00;;;;;;;;;;4971518;28;20023;-62
2022/09/14 08:13:30;;;;;;;3.83;3.50;;;;;;;;;;4975581;28;20532;-62
2022/09/14 08:15:59;;;;;;;4.05;3.58;;;;;;;;;;4974776;28;20030;-62
2022/09/14 08:18:24;;;;;;;3.95;3.75;;;;;;;;;;4977847;28;20042;-63
2022/09/14 08:20:49;;;;;;;4.10;3.90;;;;;;;;;;4975788;28;20031;-62
2022/09/14 08:23:14;;;;;;;3.72;3.42;;;;;;;;;;4975160;28;20154;-61
2022/09/14 08:25:39;;;;;;;4.25;3.90;;;;;;;;;;4974772;28;20031;-63
2022/09/14 08:28:05;;;;;;;4.90;3.55;;;;;;;;;;4974883;28;20129;-62
2022/09/14 08:30:31;;;;;;;4.82;4.32;;;;;;;;;;4970033;28;20073;-64
2022/09/14 08:32:57;;;;;;;4.07;3.78;;;;;;;;;;4971698;28;20046;-64
2022/09/14 08:35:22;;;;;;;4.40;4.03;;;;;;;;;;4973985;28;20623;-64
2022/09/14 08:37:47;;;;;;;4.72;4.28;;;;;;;;;;4973462;28;20086;-64
2022/09/14 08:40:12;;;;;;;5.60;4.18;;;;;;;;;;4972746;28;20078;-65
2022/09/14 08:42:38;;;;;;;3.88;3.67;;;;;;;;;;4971092;28;20039;-64
2022/09/14 08:45:04;;;;;;;3.85;3.60;;;;;;;;;;4970523;28;20035;-64
2022/09/14 08:47:37;;;;;;;4.20;3.90;;;;;;;;;;4971539;28;20030;-64
2022/09/14 08:50:09;;;;;;;5.50;5.00;;;;;;;;;;4969179;28;20481;-64
2022/09/14 08:52:34;;;;;;;4.68;4.30;;;;;;;;;;4969351;28;20030;-65
2022/09/14 08:55:01;;;;;;;5.40;4.97;;;;;;;;;;4968630;28;20045;-64
2022/09/14 08:57:29;;;;;;;4.90;4.50;;;;;;;;;;4968434;28;20031;-64
2022/09/14 09:00:03;;;;;;;5.43;4.95;;;;;;;;;;4971824;28;20030;-64
2022/09/14 09:02:41;;;;;;;5.40;5.00;;;;;;;;;;4972627;28;20469;-64
2022/09/14 09:05:23;;;;;;;5.78;5.35;;;;;;;;;;4970074;28;20039;-64
2022/09/14 09:07:49;;;;;;;6.28;5.70;;;;;;;;;;4969938;28;20031;-64
2022/09/14 09:10:15;;;;;;;5.53;5.10;;;;;;;;;;4970253;28;20073;-64
2022/09/14 09:12:52;;;;;;;5.65;5.15;;;;;;;;;;4970287;28;20056;-64
2022/09/14 09:15:27;;;;;;;5.72;5.32;;;;;;;;;;4973374;28;20038;-64
2022/09/14 09:18:14;;;;;;;5.63;5.13;;;;;;;;;;4974040;28;20022;-64
2022/09/14 09:20:44;;;;;;;9.20;5.03;;;;;;;;;;4969201;28;20125;-64
2022/09/14 09:23:17;;;;;;;5.13;4.70;;;;;;;;;;4971033;28;20054;-64
2022/09/14 09:25:51;;;;;;;5.18;4.57;;;;;;;;;;4969565;28;20022;-64
2022/09/14 09:28:17;;;;;;;4.65;4.40;;;;;;;;;;4971296;28;20039;-64
2022/09/14 09:30:44;;;;;;;4.75;4.53;;;;;;;;;;4974038;28;20062;-64
2022/09/14 09:33:27;;;;;;;5.97;5.55;;;;;;;;;;4982135;28;20049;-64
2022/09/14 09:35:53;;;;;;;5.68;5.13;;;;;;;;;;4973365;28;20122;-65
2022/09/14 09:38:23;;;;;;;5.38;5.05;;;;;;;;;;4975223;28;20473;-65
2022/09/14 09:40:51;;;;;;;5.20;4.80;;;;;;;;;;4974235;28;20023;-65
2022/09/14 09:43:17;;;;;;;5.03;4.72;;;;;;;;;;4973902;28;20037;-70
2022/09/14 09:45:45;;;;;;;6.05;5.63;;;;;;;;;;4972774;28;20022;-71
2022/09/14 09:48:12;;;;;;;5.35;4.40;;;;;;;;;;4975583;28;20022;-70
2022/09/14 09:50:45;;;;;;;6.15;5.55;;;;;;;;;;4972470;28;20042;-68
2022/09/14 09:53:13;;;;;;;6.03;4.88;;;;;;;;;;4974628;28;20034;-68
2022/09/14 09:55:39;;;;;;;4.30;4.05;;;;;;;;;;4973722;28;20373;-69
2022/09/14 09:58:19;;;;;;;5.40;5.00;;;;;;;;;;4973836;28;20030;-69
2022/09/14 10:00:54;;;;;;;6.28;5.13;;;;;;;;;;4972708;28;20022;-70
2022/09/14 10:03:25;;;;;;;5.68;4.90;;;;;;;;;;4973885;28;20031;-68
2022/09/14 10:05:58;;;;;;;6.10;5.50;;;;;;;;;;4974629;28;20614;-66
2022/09/14 10:08:24;;;;;;;5.32;4.93;;;;;;;;;;4973852;28;20027;-66
2022/09/14 10:10:50;;;;;;;5.45;4.95;;;;;;;;;;4973115;28;20089;-64
2022/09/14 10:13:24;;;;;;;4.65;4.18;;;;;;;;;;4975676;28;20038;-64
2022/09/14 10:15:50;;;;;;;5.57;5.07;;;;;;;;;;4977527;28;20412;-64
2022/09/14 10:18:16;;;;;;;9.32;6.35;;;;;;;;;;4975884;28;20413;-64
2022/09/14 10:20:51;;;;;;;6.78;6.07;;;;;;;;;;4977714;28;20122;-63
2022/09/14 10:23:16;;;;;;;13.10;5.53;;;;;;;;;;4976619;28;20050;-63
2022/09/14 10:25:42;;;;;;;5.97;5.40;;;;;;;;;;4975779;28;20544;-66
2022/09/14 10:28:19;;;;;;;5.07;4.55;;;;;;;;;;4976193;28;20031;-60
2022/09/14 10:30:48;;;;;;;5.10;4.70;;;;;;;;;;4976095;28;20568;-64
2022/09/14 10:33:14;;;;;;;9.27;5.97;;;;;;;;;;4977057;28;20793;-65
2022/09/14 10:35:49;;;;;;;6.93;5.20;;;;;;;;;;4976605;28;20066;-64
2022/09/14 10:38:17;;;;;;;5.90;5.35;;;;;;;;;;4976478;28;20026;-64
2022/09/14 10:40:44;;;;;;;4.80;4.50;;;;;;;;;;4975202;28;20647;-64
2022/09/14 10:43:20;;;;;;;5.72;5.25;;;;;;;;;;4977021;28;20074;-66
2022/09/14 10:45:49;;;;;;;9.45;5.65;;;;;;;;;;4974822;28;20027;-63
2022/09/14 10:48:36;;;;;;;13.63;11.93;;;;;;;;;;4975195;28;20546;-61
2022/09/14 10:51:01;;;;;;;6.43;5.93;;;;;;;;;;4976328;28;20022;-61
2022/09/14 10:53:32;;;;;;;5.28;4.88;;;;;;;;;;4976128;28;20512;-61
2022/09/14 10:56:02;;;;;;;5.93;5.43;;;;;;;;;;4975678;28;20503;-61
2022/09/14 10:58:43;;;;;;;6.55;5.07;;;;;;;;;;4976187;28;20031;-66
2022/09/14 11:01:20;;;;;;;5.53;5.03;;;;;;;;;;4976660;28;20068;-63
2022/09/14 11:03:58;;;;;;;10.07;5.57;;;;;;;;;;4975694;28;20042;-64
2022/09/14 11:06:29;;;;;;;5.72;5.18;;;;;;;;;;4974707;28;20053;-64
2022/09/14 11:08:58;;;;;;;5.72;5.13;;;;;;;;;;4974451;28;20466;-65
2022/09/14 11:11:26;;;;;;;5.90;5.30;;;;;;;;;;4976079;28;20025;-63
2022/09/14 11:13:58;;;;;;;6.70;5.18;;;;;;;;;;4975767;28;20025;-63
2022/09/14 11:16:46;;;;;;;7.80;5.85;;;;;;;;;;4973597;28;20066;-63
2022/09/14 11:19:11;;;;;;;6.57;6.00;;;;;;;;;;4972216;28;20042;-64
2022/09/14 11:21:45;;;;;;;10.18;5.70;;;;;;;;;;4974575;28;20026;-65
2022/09/14 11:24:12;;;;;;;5.65;5.15;;;;;;;;;;4975334;28;20066;-66
2022/09/14 11:26:40;;;;;;;6.38;5.63;;;;;;;;;;4975122;28;20576;-64
2022/09/14 11:29:18;;;;;;;5.82;5.18;;;;;;;;;;4973964;28;20027;-64
2022/09/14 11:31:49;;;;;;;4.95;4.57;;;;;;;;;;4974635;28;20105;-63
2022/09/14 11:34:20;;;;;;;7.90;4.95;;;;;;;;;;4975042;28;20073;-65
2022/09/14 11:36:48;;;;;;;7.22;5.38;;;;;;;;;;4976584;28;20044;-65
2022/09/14 11:39:31;;;;;;;6.90;5.13;;;;;;;;;;4973829;28;20035;-63
2022/09/14 11:42:07;;;;;;;5.60;5.10;;;;;;;;;;4976642;28;20041;-64
2022/09/14 11:44:37;;;;;;;5.25;4.95;;;;;;;;;;4970961;28;20474;-63
2022/09/14 11:47:02;;;;;;;7.18;5.85;;;;;;;;;;4971593;28;20031;-63
2022/09/14 11:49:38;;;;;;;6.60;6.07;;;;;;;;;;4974397;28;20819;-63
2022/09/14 11:52:10;;;;;;;6.28;5.68;;;;;;;;;;4975301;28;20057;-64
2022/09/14 11:54:38;;;;;;;5.82;5.22;;;;;;;;;;4970166;28;20034;-64
2022/09/14 11:57:03;;;;;;;5.70;4.65;;;;;;;;;;4969688;28;20088;-64
2022/09/14 11:59:33;;;;;;;5.22;4.82;;;;;;;;;;4973721;28;20153;-66
2022/09/14 12:02:17;;;;;;;6.30;5.70;;;;;;;;;;4972367;28;20023;-63
2022/09/14 12:05:02;;;;;;;5.68;5.15;;;;;;;;;;4974423;28;20061;-64
2022/09/14 12:07:46;;;;;;;5.15;4.75;;;;;;;;;;4974351;28;20035;-64
2022/09/14 12:10:14;;;;;;;5.25;4.57;;;;;;;;;;4974406;28;20030;-63
2022/09/14 12:12:47;;;;;;;5.72;5.22;;;;;;;;;;4976224;28;20027;-63
2022/09/14 12:15:20;;;;;;;5.90;5.28;;;;;;;;;;4971571;28;20035;-63
2022/09/14 12:17:45;;;;;;;5.80;5.30;;;;;;;;;;4970962;28;20069;-63
2022/09/14 12:20:29;;;;;;;7.88;5.28;;;;;;;;;;4975556;28;20121;-63
2022/09/14 12:23:09;;;;;;;8.68;5.28;;;;;;;;;;4975237;28;20037;-63
2022/09/14 12:25:36;;;;;;;5.80;5.30;;;;;;;;;;4971241;28;20030;-63
2022/09/14 12:28:01;;;;;;;9.68;5.93;;;;;;;;;;4971268;28;20525;-63
2022/09/14 12:30:34;;;;;;;5.60;5.20;;;;;;;;;;4974165;28;20054;-63
2022/09/14 12:32:59;;;;;;;6.28;5.68;;;;;;;;;;5004344;28;20042;-64
2022/09/14 12:35:37;;;;;;;6.53;6.03;;;;;;;;;;4973021;28;20031;-65
2022/09/14 12:38:21;;;;;;;8.45;5.65;;;;;;;;;;4972911;28;20441;-64
2022/09/14 12:40:46;;;;;;;6.40;5.90;;;;;;;;;;4973702;28;20026;-64
2022/09/14 12:43:41;;;;;;;5.90;5.38;;;;;;;;;;4970836;28;20545;-65
2022/09/14 12:46:10;;;;;;;6.60;5.97;;;;;;;;;;4969495;28;20965;-64
2022/09/14 12:48:44;;;;;;;5.97;5.47;;;;;;;;;;4955926;28;20034;-64
2022/09/14 12:51:12;;;;;;;6.85;6.25;;;;;;;;;;4955984;28;20050;-63
2022/09/14 12:53:39;;;;;;;6.70;6.20;;;;;;;;;;4941990;28;20074;-64
2022/09/14 12:56:05;;;;;;;6.18;5.22;;;;;;;;;;4952764;28;20038;-63
2022/09/14 12:58:40;;;;;;;11.60;5.72;;;;;;;;;;4952312;28;20066;-63
2022/09/14 13:01:07;;;;;;;12.40;5.43;;;;;;;;;;4954819;28;20026;-63
2022/09/14 13:03:38;;;;;;;17.13;5.28;;;;;;;;;;4950929;28;20042;-63
2022/09/14 13:06:09;;;;;;;11.52;5.57;;;;;;;;;;4952554;28;20031;-64
2022/09/14 13:08:34;;;;;;;4.88;3.80;;;;;;;;;;4956945;28;20399;-63
2022/09/14 13:11:00;;;;;;;9.05;4.97;;;;;;;;;;4951302;28;20105;-65
2022/09/14 13:13:29;;;;;;;6.30;4.85;;;;;;;;;;4953689;28;20042;-65
2022/09/14 13:15:55;;;;;;;8.48;4.50;;;;;;;;;;4952006;28;20038;-64
2022/09/14 13:18:21;;;;;;;5.80;4.35;;;;;;;;;;4951372;28;20134;-65
2022/09/14 13:20:50;;;;;;;4.50;3.93;;;;;;;;;;4956259;28;21028;-65
2022/09/14 13:23:22;;;;;;;4.50;3.80;;;;;;;;;;4968766;28;20257;-66
2022/09/14 13:25:47;;;;;;;4.18;3.83;;;;;;;;;;4972538;28;20092;-68
2022/09/14 13:28:14;;;;;;;7.82;4.40;;;;;;;;;;4973493;28;20031;-70
2022/09/14 13:30:43;;;;;;;9.63;3.97;;;;;;;;;;4972447;28;20055;-70
2022/09/14 13:33:15;;;;;;;8.77;4.85;;;;;;;;;;4973529;28;20041;-71
2022/09/14 13:35:51;;;;;;;6.78;4.90;;;;;;;;;;4972443;28;20022;-73
2022/09/14 13:38:22;;;;;;;11.13;5.57;;;;;;;;;;4974083;28;20030;-71
2022/09/14 13:40:48;;;;;;;5.47;4.65;;;;;;;;;;4972984;28;20601;-71
2022/09/14 13:43:17;;;;;;;9.68;5.47;;;;;;;;;;4973802;28;20109;-69
2022/09/14 13:45:43;;;;;;;7.97;4.65;;;;;;;;;;4973887;28;20026;-69
2022/09/14 13:48:12;;;;;;;7.80;4.05;;;;;;;;;;4976170;28;20449;-70
2022/09/14 13:50:37;;;;;;;6.05;4.70;;;;;;;;;;4977624;28;20022;-69
2022/09/14 13:53:02;;;;;;;6.22;4.68;;;;;;;;;;4976613;28;20363;-69
2022/09/14 13:55:46;;;;;;;7.93;4.43;;;;;;;;;;4975833;28;20539;-70
2022/09/14 13:58:13;;;;;;;5.70;4.57;;;;;;;;;;4973912;28;20054;-68
2022/09/14 14:00:56;;;;;;;7.25;4.93;;;;;;;;;;4972191;28;20034;-63
2022/09/14 14:03:42;;;;;;;5.65;4.50;;;;;;;;;;4976476;28;20035;-65
2022/09/14 14:06:19;;;;;;;4.65;4.35;;;;;;;;;;4974431;28;20054;-64
2022/09/14 14:08:50;;;;;;;6.18;4.68;;;;;;;;;;4975400;28;20399;-65
2022/09/14 14:11:24;;;;;;;4.90;4.50;;;;;;;;;;4975367;28;20030;-65
2022/09/14 14:13:49;;;;;;;7.35;4.75;;;;;;;;;;4977612;28;20380;-65
2022/09/14 14:16:17;;;;;;;7.97;4.68;;;;;;;;;;4976278;28;20045;-65
2022/09/14 14:18:48;;;;;;;6.40;5.32;;;;;;;;;;4977018;28;20053;-69
2022/09/14 14:21:26;;;;;;;4.63;4.32;;;;;;;;;;4976967;28;20536;-62
2022/09/14 14:23:52;;;;;;;6.80;4.55;;;;;;;;;;4975849;28;20035;-62
2022/09/14 14:26:23;;;;;;;8.07;4.85;;;;;;;;;;4971480;28;20069;-62
2022/09/14 14:28:48;;;;;;;5.00;4.53;;;;;;;;;;4974764;28;20038;-63
2022/09/14 14:31:14;;;;;;;5.45;4.90;;;;;;;;;;4975117;28;20055;-63
2022/09/14 14:33:48;;;;;;;5.47;4.90;;;;;;;;;;4976105;28;20038;-64
2022/09/14 14:36:13;;;;;;;6.85;4.95;;;;;;;;;;4975417;28;20030;-62
2022/09/14 14:38:39;;;;;;;5.40;4.95;;;;;;;;;;4972544;28;20156;-59
2022/09/14 14:41:05;;;;;;;4.82;4.38;;;;;;;;;;4971462;28;20489;-63
2022/09/14 14:43:30;;;;;;;12.13;5.88;;;;;;;;;;4976841;28;20026;-63
2022/09/14 14:45:56;;;;;;;6.93;5.00;;;;;;;;;;4973693;28;20035;-62
2022/09/14 14:48:22;;;;;;;6.03;5.50;;;;;;;;;;4970647;28;20546;-61
2022/09/14 14:50:47;;;;;;;5.38;4.70;;;;;;;;;;4972827;28;20173;-62
2022/09/14 14:53:13;;;;;;;6.65;5.03;;;;;;;;;;4974784;28;20048;-62
2022/09/14 14:55:38;;;;;;;9.27;4.80;;;;;;;;;;4975389;28;20031;-62
2022/09/14 14:58:06;;;;;;;6.35;4.95;;;;;;;;;;4975278;28;20527;-62
2022/09/14 15:00:32;;;;;;;7.30;4.10;;;;;;;;;;4974408;28;20081;-62
2022/09/14 15:02:57;;;;;;;4.60;4.30;;;;;;;;;;4974977;28;20181;-63
2022/09/14 15:05:23;;;;;;;6.57;4.57;;;;;;;;;;4975707;28;20035;-68
2022/09/14 15:07:51;;;;;;;8.30;4.63;;;;;;;;;;4977167;28;20057;-63
2022/09/14 15:10:17;;;;;;;5.07;4.45;;;;;;;;;;4976482;28;20026;-63
2022/09/14 15:12:43;;;;;;;4.90;4.38;;;;;;;;;;4973540;28;20023;-63
2022/09/14 15:15:12;;;;;;;4.68;4.25;;;;;;;;;;4975593;28;20630;-62
2022/09/14 15:17:38;;;;;;;6.15;5.55;;;;;;;;;;4974354;28;20062;-64
2022/09/14 15:20:03;;;;;;;6.50;4.35;;;;;;;;;;4974728;28;20692;-68
2022/09/14 15:22:28;;;;;;;6.07;5.05;;;;;;;;;;4976548;28;20035;-69
2022/09/14 15:24:54;;;;;;;5.65;5.15;;;;;;;;;;4975071;28;20026;-62
2022/09/14 15:27:19;;;;;;;6.55;4.78;;;;;;;;;;4975413;28;20034;-62
2022/09/14 15:29:44;;;;;;;6.30;4.40;;;;;;;;;;4975382;28;20158;-62
2022/09/14 15:32:09;;;;;;;6.72;4.60;;;;;;;;;;4974323;28;20046;-62